This is the latest recevied weather packets stored in our database for station/object HG9MFT-11. If no packets are shown the sender has not sent any weather packets the latest 10 day(s).
| Time | Temp. | Humidity | Pressure | Rain* | Wind** | Luminosity | Snow |
|---|---|---|---|---|---|---|---|
| 1777916455 | 16.11° C | 48% | 1014.6 hPa | - | - | - | - |
| 1777914715 | 16.67° C | 46% | 1014.5 hPa | - | - | - | - |
| 1777912975 | 16.67° C | 43% | 1014.4 hPa | - | - | - | - |
| 1777912256 | 17.22° C | 37% | 1014.5 hPa | - | - | - | - |
| 1777910515 | 17.22° C | 40% | 1014.5 hPa | - | - | - | - |
| 1777908775 | 16.11° C | 53% | 1014.7 hPa | - | - | - | - |
| 1777907035 | 16.67° C | 52% | 1014.8 hPa | - | - | - | - |
| 1777905295 | 16.67° C | 52% | 1014.9 hPa | - | - | - | - |
| 1777901815 | 16.11° C | 52% | 1015.5 hPa | - | - | - | - |
| 1777898335 | 15.56° C | 54% | 1016.1 hPa | - | - | - | - |
| 1777896595 | 15.56° C | 55% | 1016.5 hPa | - | - | - | - |
| 1777894854 | 15.56° C | 55% | 1016.7 hPa | - | - | - | - |
| 1777893114 | 15.56° C | 55% | 1016.9 hPa | - | - | - | - |
| 1777891374 | 15.56° C | 55% | 1017.4 hPa | - | - | - | - |
| 1777890655 | 15° C | 55% | 1017.6 hPa | - | - | - | - |
| 1777888915 | 15° C | 56% | 1017.9 hPa | - | - | - | - |
| 1777887175 | 15° C | 55% | 1018.1 hPa | - | - | - | - |
| 1777885435 | 15° C | 55% | 1018.5 hPa | - | - | - | - |
| 1777883695 | 15° C | 55% | 1018.9 hPa | - | - | - | - |
| 1777881954 | 15° C | 55% | 1019.1 hPa | - | - | - | - |
| 1777880214 | 15.56° C | 55% | 1019 hPa | - | - | - | - |
| 1777878474 | 15° C | 55% | 1019.1 hPa | - | - | - | - |
| 1777876741 | 15.56° C | 55% | 1019.1 hPa | - | - | - | - |
| 1777873254 | 15° C | 55% | 1019.1 hPa | - | - | - | - |
| 1777871514 | 15.56° C | 55% | 1019 hPa | - | - | - | - |
* Rain since midnight (hover to see other rain measurements)
** Current wind speed in m/s (hover to see current wind gust speed)